createdAt,value
2019-01-30T00:01:34.832Z,7.70
2019-01-30T00:04:04.316Z,4.92
2019-01-30T00:06:33.595Z,12.28
2019-01-30T00:09:03.048Z,7.95
2019-01-30T00:11:32.359Z,11.30
2019-01-30T00:14:01.697Z,10.15
2019-01-30T00:16:30.973Z,11.97
2019-01-30T00:19:00.252Z,10.15
2019-01-30T00:21:29.537Z,9.23
2019-01-30T00:23:58.840Z,10.48
2019-01-30T00:26:28.104Z,12.28
2019-01-30T00:28:57.406Z,11.50
2019-01-30T00:31:26.673Z,13.80
2019-01-30T00:33:57.158Z,11.18
2019-01-30T00:36:26.417Z,11.80
2019-01-30T00:38:55.756Z,10.00
2019-01-30T00:41:25.009Z,10.93
2019-01-30T00:43:54.261Z,10.30
2019-01-30T00:46:23.532Z,16.82
2019-01-30T00:48:52.793Z,10.30
2019-01-30T00:51:22.072Z,10.05
2019-01-30T00:53:51.320Z,14.25
2019-01-30T00:56:20.588Z,13.43
2019-01-30T00:58:49.877Z,8.90
2019-01-30T01:01:19.160Z,11.25
2019-01-30T01:03:48.403Z,13.60
2019-01-30T01:06:17.686Z,12.10
2019-01-30T01:08:46.940Z,12.37
2019-01-30T01:11:16.213Z,10.48
2019-01-30T01:13:45.451Z,6.83
2019-01-30T01:16:14.711Z,7.50
2019-01-30T01:18:43.959Z,11.50
2019-01-30T01:21:13.242Z,11.28
2019-01-30T01:23:42.492Z,8.88
2019-01-30T01:26:11.737Z,7.25
2019-01-30T01:28:41.009Z,13.50
2019-01-30T01:31:10.257Z,8.63
2019-01-30T01:33:39.590Z,4.85
2019-01-30T01:36:08.923Z,5.78
2019-01-30T01:38:38.205Z,7.40
2019-01-30T01:41:07.475Z,7.35
2019-01-30T01:43:36.757Z,6.80
2019-01-30T01:46:06.173Z,14.00
2019-01-30T01:48:35.435Z,11.15
2019-01-30T01:51:04.774Z,9.35
2019-01-30T01:53:34.044Z,7.65
2019-01-30T01:56:03.288Z,9.30
2019-01-30T01:58:32.568Z,8.45
2019-01-30T02:01:01.835Z,9.05
2019-01-30T02:03:31.184Z,8.53
2019-01-30T02:06:00.461Z,8.23
2019-01-30T02:08:29.719Z,10.30
2019-01-30T02:10:58.977Z,7.22
2019-01-30T02:13:28.237Z,5.45
2019-01-30T02:15:57.562Z,5.78
2019-01-30T02:18:26.828Z,5.20
2019-01-30T02:20:56.189Z,9.58
2019-01-30T02:23:25.408Z,11.65
2019-01-30T02:25:54.772Z,9.83
2019-01-30T02:28:24.020Z,4.83
2019-01-30T02:30:53.288Z,7.33
2019-01-30T02:33:22.609Z,9.18
2019-01-30T02:35:51.961Z,6.03
2019-01-30T02:38:21.218Z,9.83
2019-01-30T02:40:50.464Z,4.10
2019-01-30T02:43:19.739Z,6.55
2019-01-30T02:45:48.997Z,5.60
2019-01-30T02:48:18.326Z,8.50
2019-01-30T02:50:47.577Z,8.93
2019-01-30T02:53:16.845Z,5.15
2019-01-30T02:55:46.086Z,7.85
2019-01-30T02:58:15.345Z,4.50
2019-01-30T03:00:44.613Z,9.50
2019-01-30T03:03:13.884Z,8.90
2019-01-30T03:05:43.132Z,49.40
2019-01-30T03:08:12.396Z,7.92
2019-01-30T03:10:41.648Z,8.35
2019-01-30T03:13:10.919Z,7.12
2019-01-30T03:15:40.169Z,6.85
2019-01-30T03:18:09.540Z,15.85
2019-01-30T03:20:38.796Z,7.33
2019-01-30T03:23:08.063Z,6.42
2019-01-30T03:25:37.412Z,10.32
2019-01-30T03:28:06.731Z,5.22
2019-01-30T03:30:35.995Z,7.62
2019-01-30T03:33:05.273Z,9.38
2019-01-30T03:35:34.594Z,8.43
2019-01-30T03:38:03.840Z,10.43
2019-01-30T03:40:33.104Z,7.97
2019-01-30T03:43:02.364Z,11.48
2019-01-30T03:45:31.638Z,4.62
2019-01-30T03:48:00.889Z,8.08
2019-01-30T03:50:30.158Z,9.93
2019-01-30T03:52:59.400Z,7.80
2019-01-30T03:55:28.653Z,5.28
2019-01-30T03:57:58.089Z,7.35
2019-01-30T04:00:27.383Z,7.35
2019-01-30T04:02:56.682Z,9.00
2019-01-30T04:05:25.928Z,5.83
2019-01-30T04:07:55.201Z,4.60
2019-01-30T04:10:24.846Z,4.67
2019-01-30T04:12:54.121Z,10.13
2019-01-30T04:15:23.717Z,12.33
2019-01-30T04:17:53.096Z,6.28
2019-01-30T04:20:22.650Z,6.83
2019-01-30T04:22:51.972Z,6.55
2019-01-30T04:25:21.246Z,5.30
2019-01-30T04:27:50.574Z,6.85
2019-01-30T04:30:24.485Z,7.70
2019-01-30T04:32:53.731Z,9.75
2019-01-30T04:35:23.001Z,5.30
2019-01-30T04:37:52.258Z,9.33
2019-01-30T04:40:21.926Z,4.40
2019-01-30T04:42:51.345Z,5.37
2019-01-30T04:45:24.951Z,8.80
2019-01-30T04:47:54.190Z,6.60
2019-01-30T04:50:23.455Z,10.98
2019-01-30T04:52:52.705Z,11.63
2019-01-30T04:55:21.949Z,6.53
2019-01-30T04:57:51.283Z,9.73
2019-01-30T05:00:22.809Z,4.95
2019-01-30T05:02:52.403Z,4.55
2019-01-30T05:05:21.760Z,6.05
2019-01-30T05:07:51.024Z,7.35
2019-01-30T05:10:20.304Z,5.30
2019-01-30T05:12:49.556Z,7.05
2019-01-30T05:15:19.650Z,5.58
2019-01-30T05:17:48.904Z,7.92
2019-01-30T05:20:19.391Z,6.65
2019-01-30T05:22:48.718Z,8.75
2019-01-30T05:25:18.315Z,4.40
2019-01-30T05:27:47.659Z,4.47
2019-01-30T05:30:20.056Z,7.35
2019-01-30T05:32:49.303Z,6.05
2019-01-30T05:35:18.593Z,9.50
2019-01-30T05:37:50.848Z,9.35
2019-01-30T05:40:18.838Z,8.60
2019-01-30T05:42:48.139Z,5.28
2019-01-30T05:45:17.509Z,6.78
2019-01-30T05:47:46.819Z,4.83
2019-01-30T05:50:16.491Z,5.00
2019-01-30T05:52:45.866Z,5.45
2019-01-30T05:55:15.870Z,5.50
2019-01-30T05:57:45.140Z,5.45
2019-01-30T06:00:31.544Z,7.55
2019-01-30T06:03:00.849Z,5.72
2019-01-30T06:05:30.130Z,11.78
2019-01-30T06:07:59.378Z,8.48
2019-01-30T06:10:28.663Z,8.95
2019-01-30T06:12:57.951Z,9.65
2019-01-30T06:15:27.216Z,4.22
2019-01-30T06:17:56.483Z,7.20
2019-01-30T06:20:26.911Z,7.53
2019-01-30T06:22:56.710Z,6.55
2019-01-30T06:25:26.206Z,8.15
2019-01-30T06:27:55.560Z,8.80
2019-01-30T06:30:24.964Z,9.63
2019-01-30T06:32:54.295Z,6.60
2019-01-30T06:35:23.735Z,9.23
2019-01-30T06:37:53.106Z,9.20
2019-01-30T06:40:30.635Z,15.85
2019-01-30T06:43:02.417Z,15.45
2019-01-30T06:45:30.887Z,13.90
2019-01-30T06:48:00.151Z,13.25
2019-01-30T06:50:30.672Z,19.35
2019-01-30T06:52:59.964Z,11.05
2019-01-30T06:55:29.288Z,20.25
2019-01-30T06:57:58.579Z,20.20
2019-01-30T07:00:28.298Z,22.87
2019-01-30T07:02:58.529Z,28.02
2019-01-30T07:05:28.098Z,20.45
2019-01-30T07:07:57.423Z,21.37
2019-01-30T07:10:28.560Z,23.92
2019-01-30T07:12:57.842Z,34.23
2019-01-30T07:15:27.113Z,25.55
2019-01-30T07:17:56.408Z,23.10
2019-01-30T07:20:25.696Z,22.95
2019-01-30T07:22:54.969Z,21.60
2019-01-30T07:25:24.430Z,24.85
2019-01-30T07:27:53.698Z,20.08
2019-01-30T07:30:28.792Z,20.95
2019-01-30T07:32:58.126Z,29.05
2019-01-30T07:35:27.417Z,24.47
2019-01-30T07:37:58.649Z,21.35
2019-01-30T07:40:27.701Z,19.48
2019-01-30T07:42:56.975Z,25.15
2019-01-30T07:45:28.293Z,25.25
2019-01-30T07:47:57.751Z,29.50
2019-01-30T07:50:27.018Z,24.00
2019-01-30T07:52:58.775Z,34.85
2019-01-30T07:55:27.310Z,16.82
2019-01-30T07:57:56.634Z,28.27
2019-01-30T08:00:28.434Z,27.65
2019-01-30T08:02:57.793Z,26.45
2019-01-30T08:05:27.054Z,32.75
2019-01-30T08:07:56.309Z,23.83
2019-01-30T08:10:25.590Z,23.10
2019-01-30T08:12:54.855Z,23.35
2019-01-30T08:15:25.163Z,20.82
2019-01-30T08:17:54.430Z,26.55
2019-01-30T08:20:24.108Z,24.43
2019-01-30T08:22:53.424Z,24.23
2019-01-30T08:25:23.907Z,31.25
2019-01-30T08:27:53.555Z,21.62
2019-01-30T08:30:28.116Z,16.73
2019-01-30T08:33:04.672Z,24.02
2019-01-30T08:35:30.797Z,22.90
2019-01-30T08:38:00.216Z,21.85
2019-01-30T08:40:29.705Z,25.25
2019-01-30T08:42:59.095Z,21.93
2019-01-30T08:45:32.292Z,16.90
2019-01-30T08:48:01.804Z,22.75
2019-01-30T08:50:31.214Z,24.20
2019-01-30T08:53:00.514Z,20.02
2019-01-30T08:55:29.789Z,17.95
2019-01-30T08:57:59.270Z,18.30
2019-01-30T09:00:29.439Z,21.85
2019-01-30T09:02:58.696Z,21.23
2019-01-30T09:05:28.050Z,39.42
2019-01-30T09:07:57.316Z,25.77
2019-01-30T09:10:27.021Z,18.40
2019-01-30T09:12:56.285Z,27.32
2019-01-30T09:15:26.650Z,28.05
2019-01-30T09:17:55.909Z,20.72
2019-01-30T09:20:25.478Z,14.55
2019-01-30T09:22:54.778Z,17.92
2019-01-30T09:25:26.076Z,17.98
2019-01-30T09:27:55.460Z,21.42
2019-01-30T09:30:26.941Z,23.85
2019-01-30T09:32:56.232Z,21.82
2019-01-30T09:35:25.491Z,18.60
2019-01-30T09:37:55.069Z,14.73
2019-01-30T09:40:24.750Z,21.77
2019-01-30T09:42:54.140Z,18.95
2019-01-30T09:45:23.885Z,20.75
2019-01-30T09:47:53.165Z,21.10
2019-01-30T09:50:22.647Z,20.12
2019-01-30T09:52:52.482Z,16.57
2019-01-30T09:55:21.971Z,24.45
2019-01-30T09:57:51.414Z,15.35
2019-01-30T10:00:26.417Z,18.65
2019-01-30T10:02:55.680Z,17.67
2019-01-30T10:05:24.969Z,18.73
2019-01-30T10:07:55.266Z,18.95
2019-01-30T10:10:35.398Z,23.62
2019-01-30T10:13:05.085Z,22.00
2019-01-30T10:15:36.544Z,29.65
2019-01-30T10:18:06.383Z,12.30
2019-01-30T10:20:36.248Z,12.83
2019-01-30T10:23:05.869Z,33.17
2019-01-30T10:25:35.203Z,13.80
2019-01-30T10:28:04.761Z,14.63
2019-01-30T10:30:35.918Z,11.10
2019-01-30T10:33:05.308Z,18.27
2019-01-30T10:35:34.701Z,24.20
2019-01-30T10:38:04.422Z,21.43
2019-01-30T10:40:33.784Z,18.23
2019-01-30T10:43:03.047Z,15.03
2019-01-30T10:45:32.339Z,15.37
2019-01-30T10:48:01.636Z,15.70
2019-01-30T10:50:31.427Z,18.42
2019-01-30T10:53:00.716Z,28.52
2019-01-30T10:55:31.273Z,17.35
2019-01-30T10:58:02.482Z,19.65
2019-01-30T11:00:34.576Z,27.17
2019-01-30T11:03:03.846Z,22.40
2019-01-30T11:05:33.185Z,29.30
2019-01-30T11:08:02.493Z,16.37
2019-01-30T11:10:31.768Z,23.00
2019-01-30T11:13:01.109Z,17.57
2019-01-30T11:15:30.543Z,17.65
2019-01-30T11:18:00.163Z,25.92
2019-01-30T11:20:29.713Z,21.77
2019-01-30T11:22:59.010Z,19.15
2019-01-30T11:25:30.812Z,25.85
2019-01-30T11:28:00.138Z,19.82
2019-01-30T11:30:29.463Z,26.40
2019-01-30T11:32:58.722Z,26.68
2019-01-30T11:35:28.029Z,22.42
2019-01-30T11:37:57.288Z,18.65
2019-01-30T11:40:27.468Z,18.77
2019-01-30T11:42:56.744Z,22.77
2019-01-30T11:45:28.500Z,29.55
2019-01-30T11:47:57.762Z,25.82
2019-01-30T11:50:27.048Z,20.62
2019-01-30T11:52:56.428Z,18.70
2019-01-30T11:55:25.834Z,19.95
2019-01-30T11:57:55.109Z,20.55
2019-01-30T12:00:49.949Z,28.38
2019-01-30T12:03:19.217Z,20.52
2019-01-30T12:05:48.636Z,25.15
2019-01-30T12:08:17.940Z,22.70
2019-01-30T12:10:47.227Z,25.27
2019-01-30T12:13:16.686Z,25.27
2019-01-30T12:15:46.041Z,20.55
2019-01-30T12:18:15.354Z,22.90
2019-01-30T12:20:44.682Z,29.27
2019-01-30T12:23:13.982Z,18.48
2019-01-30T12:25:43.243Z,25.82
2019-01-30T12:28:12.796Z,25.02
2019-01-30T12:30:42.053Z,21.60
2019-01-30T12:33:11.352Z,21.27
2019-01-30T12:35:40.612Z,20.92
2019-01-30T12:38:09.913Z,27.35
2019-01-30T12:40:39.160Z,20.77
2019-01-30T12:43:08.528Z,27.98
2019-01-30T12:45:38.031Z,26.48
2019-01-30T12:48:10.698Z,20.25
2019-01-30T12:50:39.413Z,27.30
2019-01-30T12:53:08.688Z,33.05
2019-01-30T12:55:37.996Z,26.93
2019-01-30T12:58:07.266Z,22.93
2019-01-30T13:00:39.902Z,27.20
2019-01-30T13:03:09.174Z,24.43
2019-01-30T13:05:38.556Z,22.48
2019-01-30T13:08:07.976Z,27.73
2019-01-30T13:10:37.302Z,26.75
2019-01-30T13:13:06.633Z,28.55
2019-01-30T13:15:35.897Z,23.57
2019-01-30T13:18:17.718Z,28.52
2019-01-30T13:20:37.340Z,27.77
2019-01-30T13:23:06.879Z,25.68
2019-01-30T13:25:36.468Z,24.65
2019-01-30T13:28:06.604Z,23.75
2019-01-30T13:30:43.479Z,26.15
2019-01-30T13:33:12.097Z,31.02
2019-01-30T13:35:41.384Z,32.95
2019-01-30T13:38:10.775Z,26.65
2019-01-30T13:40:41.363Z,28.98
2019-01-30T13:43:10.664Z,25.75
2019-01-30T13:45:39.936Z,27.95
2019-01-30T13:48:12.357Z,29.42
2019-01-30T13:50:41.663Z,34.08
2019-01-30T13:53:11.025Z,34.20
2019-01-30T13:55:40.383Z,34.58
2019-01-30T13:58:09.654Z,32.80
2019-01-30T14:00:39.031Z,28.10
2019-01-30T14:03:09.180Z,38.10
2019-01-30T14:05:38.511Z,29.45
2019-01-30T14:08:09.806Z,36.28
2019-01-30T14:10:39.094Z,28.38
2019-01-30T14:13:08.380Z,28.90
2019-01-30T14:15:37.653Z,25.35
2019-01-30T14:18:07.265Z,34.80
2019-01-30T14:20:36.640Z,39.20
2019-01-30T14:23:06.301Z,34.45
2019-01-30T14:25:35.761Z,26.87
2019-01-30T14:28:05.284Z,28.98
2019-01-30T14:30:39.216Z,27.80
2019-01-30T14:33:08.818Z,30.50
2019-01-30T14:35:40.279Z,32.75
2019-01-30T14:38:09.720Z,27.55
2019-01-30T14:40:38.985Z,33.45
2019-01-30T14:43:08.387Z,30.12
2019-01-30T14:45:37.802Z,31.10
2019-01-30T14:48:07.098Z,33.73
2019-01-30T14:50:36.403Z,36.20
2019-01-30T14:53:05.924Z,31.23
2019-01-30T14:55:35.356Z,29.02
2019-01-30T14:58:06.888Z,32.55
2019-01-30T15:00:37.018Z,29.35
2019-01-30T15:03:06.453Z,25.57
2019-01-30T15:05:35.786Z,26.93
2019-01-30T15:08:05.229Z,29.23
2019-01-30T15:10:34.508Z,32.00
2019-01-30T15:13:04.197Z,25.40
2019-01-30T15:15:33.535Z,28.73
2019-01-30T15:18:02.853Z,28.38
2019-01-30T15:20:33.923Z,28.35
2019-01-30T15:23:03.587Z,27.37
2019-01-30T15:25:32.864Z,27.75
2019-01-30T15:28:02.473Z,24.10
2019-01-30T15:30:40.099Z,30.90
2019-01-30T15:33:09.591Z,26.05
2019-01-30T15:35:38.903Z,33.50
2019-01-30T15:38:10.422Z,25.65
2019-01-30T15:40:40.429Z,26.75
2019-01-30T15:43:09.820Z,31.35
2019-01-30T15:45:39.267Z,38.60
2019-01-30T15:48:08.606Z,26.82
2019-01-30T15:50:38.892Z,28.92
2019-01-30T15:53:11.102Z,35.25
2019-01-30T15:55:40.441Z,30.25
2019-01-30T15:58:11.201Z,35.13
2019-01-30T16:00:52.791Z,29.42
2019-01-30T16:03:22.153Z,29.55
2019-01-30T16:05:51.457Z,36.90
2019-01-30T16:08:21.792Z,38.85
2019-01-30T16:10:51.145Z,37.75
2019-01-30T16:13:20.575Z,35.60
2019-01-30T16:15:55.947Z,33.28
2019-01-30T16:18:25.314Z,41.15
2019-01-30T16:20:54.583Z,40.35
2019-01-30T16:23:23.888Z,44.48
2019-01-30T16:25:54.098Z,47.58
2019-01-30T16:28:23.473Z,49.70
2019-01-30T16:30:52.733Z,46.45
2019-01-30T16:33:22.432Z,53.20
2019-01-30T16:35:56.153Z,51.45
2019-01-30T16:38:22.737Z,65.12
2019-01-30T16:40:51.997Z,55.33
2019-01-30T16:43:21.283Z,62.20
2019-01-30T16:45:51.248Z,48.58
2019-01-30T16:48:20.602Z,61.35
2019-01-30T16:50:49.948Z,71.55
2019-01-30T16:53:19.281Z,60.28
2019-01-30T16:55:48.545Z,75.83
2019-01-30T16:58:17.835Z,72.62
2019-01-30T17:00:47.098Z,74.47
2019-01-30T17:03:16.562Z,77.35
2019-01-30T17:05:45.843Z,72.85
2019-01-30T17:08:15.303Z,68.28
2019-01-30T17:10:44.650Z,77.85
2019-01-30T17:13:13.943Z,80.10
2019-01-30T17:15:43.228Z,77.65
2019-01-30T17:18:14.134Z,80.95
2019-01-30T17:20:43.448Z,79.92
2019-01-30T17:23:12.728Z,75.72
2019-01-30T17:25:42.991Z,80.57
2019-01-30T17:28:17.361Z,80.50
2019-01-30T17:30:56.670Z,73.40
2019-01-30T17:33:26.812Z,64.82
2019-01-30T17:35:56.143Z,79.10
2019-01-30T17:38:25.433Z,74.77
2019-01-30T17:40:58.212Z,71.00
2019-01-30T17:43:30.741Z,66.37
2019-01-30T17:46:01.088Z,69.17
2019-01-30T17:48:38.725Z,58.65
2019-01-30T17:51:11.337Z,71.53
2019-01-30T17:53:40.407Z,58.40
2019-01-30T17:56:09.734Z,56.75
2019-01-30T17:58:39.091Z,55.30
2019-01-30T18:01:08.469Z,58.17
2019-01-30T18:03:37.850Z,50.88
2019-01-30T18:06:07.687Z,47.48
2019-01-30T18:08:37.061Z,52.33
2019-01-30T18:11:06.341Z,48.28
2019-01-30T18:13:35.628Z,45.88
2019-01-30T18:16:05.205Z,53.00
2019-01-30T18:18:34.662Z,60.25
2019-01-30T18:21:03.982Z,46.60
2019-01-30T18:23:33.296Z,58.55
2019-01-30T18:26:02.651Z,52.00
2019-01-30T18:28:31.966Z,55.40
2019-01-30T18:31:01.277Z,55.50
2019-01-30T18:33:30.561Z,63.45
2019-01-30T18:35:59.868Z,56.05
2019-01-30T18:38:35.848Z,57.50
2019-01-30T18:41:03.754Z,54.55
2019-01-30T18:43:33.102Z,54.38
2019-01-30T18:46:02.410Z,59.70
2019-01-30T18:48:31.744Z,58.85
2019-01-30T18:51:01.054Z,54.85
2019-01-30T18:53:30.325Z,57.13
2019-01-30T18:55:59.618Z,57.98
2019-01-30T18:58:28.899Z,52.38
2019-01-30T19:00:58.180Z,58.48
2019-01-30T19:03:27.456Z,61.05
2019-01-30T19:05:56.745Z,49.42
2019-01-30T19:08:26.041Z,63.78
2019-01-30T19:10:55.311Z,63.55
2019-01-30T19:13:24.592Z,53.85
2019-01-30T19:15:53.921Z,58.42
2019-01-30T19:18:23.290Z,56.98
2019-01-30T19:20:52.576Z,53.70
2019-01-30T19:23:21.868Z,49.13
2019-01-30T19:25:51.141Z,57.58
2019-01-30T19:28:20.423Z,47.58
2019-01-30T19:30:49.681Z,47.13
2019-01-30T19:33:19.003Z,52.58
2019-01-30T19:35:48.280Z,56.23
2019-01-30T19:38:17.547Z,49.40
2019-01-30T19:40:46.830Z,47.13
2019-01-30T19:43:16.084Z,52.90
2019-01-30T19:45:45.382Z,59.73
2019-01-30T19:48:14.664Z,58.50
2019-01-30T19:50:43.943Z,54.48
2019-01-30T19:53:13.413Z,53.00
2019-01-30T19:55:42.708Z,62.70
2019-01-30T19:58:12.423Z,53.92
2019-01-30T20:00:44.601Z,56.88
2019-01-30T20:03:16.672Z,47.38
2019-01-30T20:05:45.954Z,47.23
2019-01-30T20:08:15.232Z,42.53
2019-01-30T20:10:44.488Z,43.85
2019-01-30T20:13:13.821Z,43.10
2019-01-30T20:15:43.085Z,37.85
2019-01-30T20:18:12.374Z,38.05
2019-01-30T20:20:41.753Z,39.35
2019-01-30T20:23:13.558Z,38.35
2019-01-30T20:25:43.949Z,49.95
2019-01-30T20:28:13.529Z,43.58
2019-01-30T20:30:42.801Z,42.53
2019-01-30T20:33:12.108Z,45.08
2019-01-30T20:35:41.469Z,38.80
2019-01-30T20:38:10.763Z,43.28
2019-01-30T20:40:40.073Z,40.43
2019-01-30T20:43:09.529Z,36.25
2019-01-30T20:45:38.820Z,38.35
2019-01-30T20:48:08.612Z,38.17
2019-01-30T20:50:37.926Z,39.78
2019-01-30T20:53:07.197Z,34.08
2019-01-30T20:55:36.477Z,29.70
2019-01-30T20:58:05.986Z,33.92
2019-01-30T21:00:37.358Z,38.90
2019-01-30T21:03:07.103Z,38.33
2019-01-30T21:05:36.402Z,36.73
2019-01-30T21:08:06.764Z,39.08
2019-01-30T21:10:38.403Z,36.68
2019-01-30T21:13:08.278Z,31.37
2019-01-30T21:15:37.946Z,36.50
2019-01-30T21:18:07.635Z,31.75
2019-01-30T21:20:36.908Z,27.87
2019-01-30T21:23:06.400Z,29.82
2019-01-30T21:25:35.673Z,43.05
2019-01-30T21:28:05.056Z,29.60
2019-01-30T21:30:35.963Z,25.32
2019-01-30T21:33:05.853Z,23.70
2019-01-30T21:35:35.276Z,27.15
2019-01-30T21:38:04.983Z,38.65
2019-01-30T21:40:34.279Z,22.65
2019-01-30T21:43:03.633Z,25.68
2019-01-30T21:45:33.081Z,27.15
2019-01-30T21:48:02.551Z,26.95
2019-01-30T21:50:31.810Z,27.05
2019-01-30T21:53:01.200Z,29.25
2019-01-30T21:55:30.500Z,27.93
2019-01-30T21:57:59.776Z,25.20
2019-01-30T22:00:29.784Z,41.63
2019-01-30T22:02:59.118Z,37.30
2019-01-30T22:05:28.479Z,29.80
2019-01-30T22:08:00.872Z,36.95
2019-01-30T22:10:29.877Z,41.95
2019-01-30T22:12:59.251Z,39.08
2019-01-30T22:15:28.538Z,45.73
2019-01-30T22:17:57.812Z,17.62
2019-01-30T22:20:27.560Z,29.60
2019-01-30T22:22:56.876Z,25.40
2019-01-30T22:25:26.397Z,21.97
2019-01-30T22:27:55.785Z,22.20
2019-01-30T22:30:32.880Z,29.35
2019-01-30T22:33:02.237Z,24.52
2019-01-30T22:35:31.512Z,19.12
2019-01-30T22:38:11.533Z,22.75
2019-01-30T22:40:31.777Z,20.57
2019-01-30T22:43:01.094Z,24.10
2019-01-30T22:45:30.366Z,26.97
2019-01-30T22:47:59.649Z,24.00
2019-01-30T22:50:28.919Z,27.20
2019-01-30T22:52:58.202Z,23.30
2019-01-30T22:55:27.755Z,24.98
2019-01-30T22:57:57.066Z,31.75
2019-01-30T23:00:55.251Z,21.15
2019-01-30T23:03:48.593Z,23.42
2019-01-30T23:06:43.206Z,22.32
2019-01-30T23:09:45.757Z,19.50
2019-01-30T23:12:52.360Z,16.95
2019-01-30T23:15:31.481Z,9.65
2019-01-30T23:18:17.878Z,19.30
2019-01-30T23:20:51.762Z,12.30
2019-01-30T23:24:09.312Z,8.65
2019-01-30T23:27:08.221Z,11.73
2019-01-30T23:30:14.842Z,18.48
2019-01-30T23:33:29.221Z,22.25
2019-01-30T23:36:46.220Z,14.30
2019-01-30T23:39:32.290Z,9.78
2019-01-30T23:42:45.080Z,11.35
2019-01-30T23:45:42.848Z,7.95
2019-01-30T23:48:35.781Z,11.93
2019-01-30T23:51:21.789Z,7.83
2019-01-30T23:54:43.412Z,6.42
2019-01-30T23:57:53.417Z,16.02
